Time;durP1;ratioP1;P1;durP2;ratioP2;P2;SDS_P1;SDS_P2;PMS_P1;PMS_P2;Temp;Humidity;BMP_temperature;BMP_pressure;BME280_temperature;BME280_humidity;BME280_pressure;Samples;Min_cycle;Max_cycle;Signal;HPM_P1;HPM_P2
2021/11/21 00:01:56;;;;;;;85.97;39.90;;;;;;;5.43;100.00;99131.06;5059564;28;20072;-93
2021/11/21 00:04:22;;;;;;;87.10;41.60;;;;;;;5.53;100.00;99140.69;5061449;28;20029;-94
2021/11/21 00:06:48;;;;;;;91.22;40.50;;;;;;;5.37;100.00;99120.50;5060952;28;20475;-93
2021/11/21 00:09:15;;;;;;;80.43;38.78;;;;;;;5.34;100.00;99113.47;5059608;28;20593;-94
2021/11/21 00:11:41;;;;;;;85.85;39.75;;;;;;;5.39;100.00;99117.00;5058720;28;20499;-92
2021/11/21 00:14:09;;;;;;;94.05;42.90;;;;;;;5.46;100.00;99128.41;5059539;28;20116;-94
2021/11/21 00:16:35;;;;;;;87.13;40.33;;;;;;;5.53;100.00;99133.69;5057695;28;20052;-93
2021/11/21 00:19:01;;;;;;;94.25;44.40;;;;;;;5.37;100.00;99108.19;5058471;28;20128;-94
2021/11/21 00:21:27;;;;;;;102.93;44.60;;;;;;;5.60;100.00;99133.69;5059281;28;20461;-92
2021/11/21 00:23:54;;;;;;;101.20;44.67;;;;;;;5.52;100.00;99115.22;5058828;28;20045;-93
2021/11/21 00:26:20;;;;;;;97.47;42.75;;;;;;;5.42;100.00;99082.72;5059488;28;20021;-93
2021/11/21 00:28:50;;;;;;;107.95;45.35;;;;;;;5.50;100.00;99099.38;5059310;28;20059;-94
2021/11/21 00:31:18;;;;;;;92.13;41.10;;;;;;;5.60;100.00;99109.94;5057971;28;20106;-94
2021/11/21 00:33:44;;;;;;;94.50;42.28;;;;;;;5.45;100.00;99089.75;5057318;28;20037;-93
2021/11/21 00:36:11;;;;;;;95.63;43.33;;;;;;;5.36;100.00;99093.28;5058540;28;20045;-94
2021/11/21 00:38:38;;;;;;;86.03;41.15;;;;;;;5.35;100.00;99094.13;5058124;28;20045;-94
2021/11/21 00:41:04;;;;;;;88.70;41.13;;;;;;;5.27;100.00;99085.34;5057907;28;20033;-94
2021/11/21 00:43:30;;;;;;;88.80;39.85;;;;;;;5.24;100.00;99080.97;5058212;28;20051;-94
2021/11/21 00:45:59;;;;;;;88.00;40.10;;;;;;;5.42;100.00;99105.56;5057717;28;20406;-94
2021/11/21 00:48:28;;;;;;;88.75;40.92;;;;;;;5.34;100.00;99081.84;5057906;28;20060;-93
2021/11/21 00:50:58;;;;;;;94.38;41.33;;;;;;;5.34;100.00;99095.91;5058092;28;20041;-93
2021/11/21 00:53:25;;;;;;;82.55;37.20;;;;;;;5.26;100.00;99080.97;5059571;28;20036;-94
2021/11/21 00:55:54;;;;;;;77.97;37.20;;;;;;;5.20;100.00;99070.41;5058941;28;20048;-92
2021/11/21 00:58:21;;;;;;;74.97;35.45;;;;;;;5.17;100.00;99084.47;5058338;28;20044;-93
2021/11/21 01:00:49;;;;;;;80.22;34.53;;;;;;;5.13;100.00;99078.31;5057232;28;20075;-94
2021/11/21 01:03:20;;;;;;;64.13;31.23;;;;;;;5.09;100.00;99068.66;5057121;28;20044;-93
2021/11/21 01:05:49;;;;;;;66.50;33.63;;;;;;;5.18;100.00;99078.31;5057791;28;20602;-91
2021/11/21 01:08:16;;;;;;;75.75;35.00;;;;;;;5.17;100.00;99063.41;5056330;28;20037;-94
2021/11/21 01:10:43;;;;;;;75.43;36.67;;;;;;;5.20;100.00;99075.69;5055844;28;20510;-93
2021/11/21 01:13:11;;;;;;;86.30;39.60;;;;;;;5.28;100.00;99089.75;5056449;28;20053;-93
2021/11/21 01:15:38;;;;;;;82.65;40.42;;;;;;;5.24;100.00;99077.44;5056202;28;20101;-93
2021/11/21 01:18:05;;;;;;;88.20;42.80;;;;;;;5.21;100.00;99072.19;5056568;28;20103;-94
2021/11/21 01:20:34;;;;;;;95.32;43.22;;;;;;;5.25;100.00;99071.31;5055474;28;20068;-94
2021/11/21 01:23:03;;;;;;;93.60;45.72;;;;;;;5.24;100.00;99059.88;5055341;28;20099;-92
2021/11/21 01:25:30;;;;;;;101.20;43.60;;;;;;;5.30;100.00;99080.97;5057122;28;20136;-93
2021/11/21 01:27:56;;;;;;;87.93;42.17;;;;;;;5.30;100.00;99075.69;5056835;28;20425;-93
2021/11/21 01:30:26;;;;;;;87.90;42.08;;;;;;;5.25;100.00;99074.81;5057404;28;20049;-94
2021/11/21 01:32:53;;;;;;;82.90;41.20;;;;;;;5.25;100.00;99066.91;5058244;28;20037;-94
2021/11/21 01:35:21;;;;;;;100.57;45.90;;;;;;;5.37;100.00;99080.97;5049332;28;20033;-94
2021/11/21 01:37:47;;;;;;;90.85;43.40;;;;;;;5.28;100.00;99056.34;5057157;28;20110;-93
2021/11/21 01:40:17;;;;;;;94.82;43.03;;;;;;;5.42;100.00;99056.34;5057334;28;20064;-92
2021/11/21 01:42:44;;;;;;;89.22;43.83;;;;;;;5.49;100.00;99060.72;5055741;28;20041;-90
2021/11/21 01:45:11;;;;;;;91.90;41.95;;;;;;;5.69;100.00;99065.06;5054324;28;20127;-93
2021/11/21 01:47:38;;;;;;;90.10;42.47;;;;;;;5.67;100.00;99041.31;5057757;28;20041;-93
2021/11/21 01:50:05;;;;;;;86.95;41.10;;;;;;;5.87;100.00;99057.06;5056912;28;20135;-94
2021/11/21 01:52:31;;;;;;;86.32;41.75;;;;;;;5.82;100.00;99026.31;5058144;28;20049;-94
2021/11/21 01:54:58;;;;;;;83.93;40.42;;;;;;;6.09;100.00;99052.63;5057194;28;20144;-94
2021/11/21 01:57:27;;;;;;;84.65;41.55;;;;;;;6.05;100.00;99024.50;5055576;28;20044;-92
2021/11/21 01:59:57;;;;;;;76.53;37.90;;;;;;;6.24;100.00;99049.03;5055843;28;20091;-93
2021/11/21 02:02:22;;;;;;;68.50;37.05;;;;;;;6.12;100.00;99028.00;5056099;28;20102;-92
2021/11/21 02:04:48;;;;;;;69.85;35.65;;;;;;;6.20;100.00;99044.66;5057083;28;20041;-94
2021/11/21 02:07:14;;;;;;;79.65;38.15;;;;;;;6.24;100.00;99041.09;5055728;28;20048;-93
2021/11/21 02:09:42;;;;;;;69.78;35.42;;;;;;;6.29;100.00;99034.06;5055795;28;20110;-92
2021/11/21 02:12:09;;;;;;;65.57;33.13;;;;;;;6.19;100.00;99015.63;5058171;28;20048;-92
2021/11/21 02:14:37;;;;;;;67.72;33.67;;;;;;;6.20;100.00;99028.81;5058062;28;20116;-92
2021/11/21 02:17:05;;;;;;;64.63;32.05;;;;;;;6.20;100.00;99018.25;5058210;28;20080;-94
2021/11/21 02:19:30;;;;;;;54.58;29.88;;;;;;;6.30;100.00;99034.94;5058183;28;20083;-94
2021/11/21 02:21:58;;;;;;;58.78;30.77;;;;;;;6.14;100.00;99013.88;5054389;28;20037;-93
2021/11/21 02:24:25;;;;;;;63.60;30.85;;;;;;;6.19;100.00;99029.69;5058970;28;20041;-93
2021/11/21 02:26:54;;;;;;;64.75;30.98;;;;;;;6.12;99.63;99022.72;5059042;28;20056;-94
2021/11/21 02:29:20;;;;;;;58.97;29.63;;;;;;;5.99;100.00;99005.19;5057458;28;20047;-93
2021/11/21 02:31:46;;;;;;;57.42;29.77;;;;;;;6.01;99.98;99011.28;5057463;28;20053;-93
2021/11/21 02:34:12;;;;;;;60.33;29.50;;;;;;;6.01;99.75;99006.91;5057342;28;20045;-92
2021/11/21 02:36:42;;;;;;;60.63;30.65;;;;;;;5.90;99.60;98984.97;5058068;28;20132;-94
2021/11/21 02:39:09;;;;;;;61.75;31.40;;;;;;;5.85;99.43;98986.72;5057975;28;20101;-93
2021/11/21 02:41:35;;;;;;;64.65;31.15;;;;;;;5.83;99.67;98981.44;5058386;28;20041;-93
2021/11/21 02:44:01;;;;;;;61.13;29.70;;;;;;;6.05;100.00;99002.47;5057331;28;20071;-94
2021/11/21 02:46:30;;;;;;;54.35;29.33;;;;;;;6.12;100.00;99002.47;5057805;28;20094;-95
2021/11/21 02:48:56;;;;;;;64.03;30.13;;;;;;;6.17;100.00;98976.88;5056844;28;20052;-93
2021/11/21 02:51:22;;;;;;;63.72;31.63;;;;;;;6.22;99.66;98987.41;5057368;28;20052;-93
2021/11/21 02:53:48;;;;;;;57.00;29.77;;;;;;;6.23;99.59;98985.69;5057082;28;20509;-93
2021/11/21 02:56:17;;;;;;;51.20;26.42;;;;;;;6.24;99.55;98995.34;5057374;28;20033;-93
2021/11/21 02:58:45;;;;;;;54.75;27.63;;;;;;;6.11;99.72;98973.41;5058642;28;20495;-93
2021/11/21 03:01:15;;;;;;;53.42;27.55;;;;;;;6.12;99.87;98964.63;5056874;28;20127;-92
2021/11/21 03:03:42;;;;;;;55.40;27.95;;;;;;;6.22;100.00;98976.00;5058518;28;20106;-93
2021/11/21 03:06:11;;;;;;;59.88;29.98;;;;;;;6.24;99.90;98984.78;5053084;28;20076;-94
2021/11/21 03:08:37;;;;;;;58.58;30.65;;;;;;;6.19;100.00;98966.31;5058995;28;20457;-92
2021/11/21 03:11:28;;;;;;;58.50;28.20;;;;;;;6.22;100.00;98963.66;5059283;28;20068;-93
2021/11/21 03:13:54;;;;;;;50.17;26.85;;;;;;;6.29;99.34;98975.97;5054166;28;20063;-92
2021/11/21 03:16:19;;;;;;;53.20;27.20;;;;;;;6.25;98.72;98962.78;5056625;28;20044;-94
2021/11/21 03:18:49;;;;;;;53.47;28.13;;;;;;;6.05;99.23;98929.47;5057849;28;20499;-93
2021/11/21 03:21:16;;;;;;;53.50;26.38;;;;;;;6.19;99.30;98944.34;5059167;28;20037;-93
2021/11/21 03:23:43;;;;;;;54.80;26.42;;;;;;;6.26;98.77;98952.19;5057756;28;20127;-93
2021/11/21 03:26:10;;;;;;;46.22;24.08;;;;;;;6.17;98.31;98944.34;5057772;28;20040;-93
2021/11/21 03:28:38;;;;;;;44.33;24.17;;;;;;;6.17;97.98;98944.34;5059726;28;20077;-92
2021/11/21 03:31:04;;;;;;;46.00;24.05;;;;;;;6.19;98.28;98941.69;5058271;28;20047;-94
2021/11/21 03:33:30;;;;;;;47.70;25.38;;;;;;;6.19;98.17;98936.41;5059856;28;20053;-92
2021/11/21 03:35:58;;;;;;;43.20;23.15;;;;;;;6.10;98.55;98922.38;5059770;28;20041;-93
2021/11/21 03:38:25;;;;;;;46.90;23.77;;;;;;;6.11;98.60;98918.84;5058531;28;20052;-94
2021/11/21 03:40:56;;;;;;;45.65;24.00;;;;;;;6.31;98.69;98946.88;5059203;28;20552;-92
2021/11/21 03:43:22;;;;;;;44.03;22.83;;;;;;;6.32;98.87;98946.00;5058827;28;20120;-93
2021/11/21 03:45:49;;;;;;;46.45;22.70;;;;;;;6.24;98.93;98921.41;5058411;28;20082;-93
2021/11/21 03:48:16;;;;;;;47.55;23.92;;;;;;;6.38;98.77;98938.03;5058725;28;20052;-93
2021/11/21 03:50:43;;;;;;;42.90;22.33;;;;;;;6.42;98.65;98938.88;5058939;28;20083;-94
2021/11/21 03:53:09;;;;;;;44.10;23.73;;;;;;;6.36;98.55;98931.88;5058227;28;20123;-93
2021/11/21 03:55:35;;;;;;;42.80;22.98;;;;;;;6.27;98.58;98910.84;5059088;28;20447;-92
2021/11/21 03:58:00;;;;;;;41.83;21.48;;;;;;;6.37;99.02;98923.94;5058469;28;20021;-92
2021/11/21 04:00:27;;;;;;;44.10;21.95;;;;;;;6.23;98.91;98909.97;5056657;28;20103;-92
2021/11/21 04:02:56;;;;;;;43.88;21.83;;;;;;;6.40;98.92;98935.38;5057090;28;20056;-92
2021/11/21 04:05:25;;;;;;;44.60;21.85;;;;;;;6.29;99.57;98920.50;5057635;28;20466;-92
2021/11/21 04:07:51;;;;;;;37.05;21.13;;;;;;;6.22;99.54;98900.28;5058846;28;20491;-93
2021/11/21 04:10:17;;;;;;;41.35;21.48;;;;;;;6.20;99.63;98896.78;5057907;28;20033;-93
2021/11/21 04:12:45;;;;;;;38.92;20.50;;;;;;;6.24;99.77;98902.91;5057506;28;20490;-94
2021/11/21 04:15:11;;;;;;;40.38;22.42;;;;;;;6.34;100.00;98912.53;5057121;28;20393;-94
2021/11/21 04:17:38;;;;;;;44.28;22.88;;;;;;;6.14;99.59;98889.78;5058973;28;20041;-92
2021/11/21 04:20:10;;;;;;;41.45;22.65;;;;;;;6.23;100.00;98915.25;5059955;28;20068;-92
2021/11/21 04:22:36;;;;;;;43.95;23.13;;;;;;;6.21;100.00;98909.09;5057357;28;20515;-93
2021/11/21 04:25:03;;;;;;;46.60;22.60;;;;;;;6.34;100.00;98918.69;5057830;28;20037;-93
2021/11/21 04:27:29;;;;;;;40.65;22.25;;;;;;;6.30;100.00;98903.75;5057844;28;20558;-93
2021/11/21 04:29:56;;;;;;;46.60;22.35;;;;;;;6.52;100.00;98919.44;5056238;28;20044;-93
2021/11/21 04:32:24;;;;;;;39.35;20.25;;;;;;;6.50;100.00;98902.72;5054485;28;20049;-93
2021/11/21 04:34:50;;;;;;;44.20;21.50;;;;;;;6.41;99.90;98886.94;5055582;28;20072;-90
2021/11/21 04:37:20;;;;;;;39.70;21.42;;;;;;;6.36;99.96;98873.78;5056351;28;20918;-93
2021/11/21 04:39:47;;;;;;;41.05;21.63;;;;;;;6.57;99.78;98900.00;5055968;28;20132;-93
2021/11/21 04:42:14;;;;;;;45.00;21.83;;;;;;;6.52;99.72;98883.31;5055569;28;20041;-93
2021/11/21 04:44:40;;;;;;;44.95;22.23;;;;;;;6.68;100.00;98899.91;5055974;28;20041;-93
2021/11/21 04:47:10;;;;;;;39.13;19.88;;;;;;;6.63;99.46;98890.28;5054216;28;20135;-93
2021/11/21 04:49:35;;;;;;;37.65;20.80;;;;;;;6.58;99.16;98882.38;5055627;28;20128;-93
2021/11/21 04:52:02;;;;;;;48.45;21.52;;;;;;;6.53;99.19;98873.63;5055132;28;20063;-92
2021/11/21 04:54:29;;;;;;;49.67;22.58;;;;;;;6.63;99.21;98893.78;5055332;28;20460;-95
2021/11/21 04:56:55;;;;;;;42.53;21.05;;;;;;;6.57;99.03;98877.97;5055144;28;20041;-93
2021/11/21 04:59:21;;;;;;;39.80;19.73;;;;;;;6.61;99.07;98876.19;5054898;28;20128;-92
2021/11/21 05:01:48;;;;;;;39.22;21.05;;;;;;;6.57;98.65;98867.41;5054393;28;20041;-93
2021/11/21 05:04:14;;;;;;;87.18;29.63;;;;;;;6.63;98.30;98877.06;5055521;28;20037;-92
2021/11/21 05:06:40;;;;;;;66.15;27.50;;;;;;;6.52;98.63;98858.66;5055497;28;20515;-93
2021/11/21 05:09:06;;;;;;;48.55;22.70;;;;;;;6.50;99.19;98855.16;5055529;28;20403;-94
2021/11/21 05:11:35;;;;;;;46.17;22.83;;;;;;;6.67;99.25;98874.38;5055839;28;20047;-92
2021/11/21 05:14:03;;;;;;;45.25;21.48;;;;;;;6.55;99.14;98851.59;5055541;28;20060;-93
2021/11/21 05:16:28;;;;;;;39.40;20.08;;;;;;;6.67;99.05;98863.78;5053876;28;20569;-92
2021/11/21 05:18:54;;;;;;;40.13;19.40;;;;;;;6.66;99.04;98859.41;5055173;28;20127;-93
2021/11/21 05:21:21;;;;;;;41.33;19.95;;;;;;;6.60;98.51;98846.25;5054625;28;20098;-94
2021/11/21 05:23:47;;;;;;;36.67;20.27;;;;;;;6.66;98.46;98861.16;5057268;28;20053;-92
2021/11/21 05:26:13;;;;;;;34.15;18.88;;;;;;;6.57;98.44;98856.84;5056801;28;20597;-93
2021/11/21 05:28:40;;;;;;;37.03;19.13;;;;;;;6.65;98.33;98865.56;5056142;28;20044;-93
2021/11/21 05:31:06;;;;;;;35.90;19.42;;;;;;;6.57;98.29;98857.75;5053453;28;20109;-92
2021/11/21 05:33:32;;;;;;;37.17;19.23;;;;;;;6.57;97.95;98854.19;5054454;28;20502;-93
2021/11/21 05:35:58;;;;;;;33.28;18.65;;;;;;;6.63;97.96;98883.22;5054731;28;20041;-93
2021/11/21 05:38:24;;;;;;;39.92;19.38;;;;;;;6.60;98.39;98871.81;5054780;28;20155;-93
2021/11/21 05:40:51;;;;;;;36.85;19.42;;;;;;;6.60;98.44;98875.31;5055152;28;20047;-92
2021/11/21 05:43:17;;;;;;;39.10;18.80;;;;;;;6.66;98.71;98887.59;5054986;28;20037;-93
2021/11/21 05:45:45;;;;;;;37.45;20.17;;;;;;;6.66;98.79;98880.56;5058365;28;20558;-93
2021/11/21 05:48:10;;;;;;;38.20;19.48;;;;;;;6.46;98.69;98849.03;5060496;28;20106;-91
2021/11/21 05:50:36;;;;;;;35.40;19.75;;;;;;;6.48;98.61;98855.16;5059792;28;20041;-93
2021/11/21 05:53:02;;;;;;;36.42;18.95;;;;;;;6.65;98.83;98881.44;5059210;28;20052;-93
2021/11/21 05:55:29;;;;;;;38.17;20.27;;;;;;;6.53;98.50;98849.88;5060873;28;20040;-94
2021/11/21 05:57:55;;;;;;;37.25;20.08;;;;;;;6.48;97.99;98847.22;5062072;28;20045;-92
2021/11/21 06:00:26;;;;;;;37.63;19.73;;;;;;;6.45;98.56;98852.56;5059155;28;20049;-93
2021/11/21 06:02:54;;;;;;;37.47;19.38;;;;;;;6.44;99.03;98839.34;5058820;28;20129;-94
2021/11/21 06:05:23;;;;;;;34.30;18.83;;;;;;;6.62;98.87;98865.63;5059608;28;20502;-93
2021/11/21 06:07:49;;;;;;;40.73;20.53;;;;;;;6.58;98.84;98850.69;5059313;28;20045;-93
2021/11/21 06:10:15;;;;;;;37.35;20.17;;;;;;;6.62;98.60;98855.06;5059094;28;20037;-92
2021/11/21 06:12:42;;;;;;;34.75;17.90;;;;;;;6.54;98.70;98833.09;5058915;28;20049;-92
2021/11/21 06:15:09;;;;;;;40.78;19.45;;;;;;;6.51;98.62;98830.50;5058295;28;20402;-94
2021/11/21 06:17:35;;;;;;;36.65;19.13;;;;;;;6.60;98.90;98845.41;5059068;28;20083;-92
2021/11/21 06:20:03;;;;;;;36.80;19.90;;;;;;;6.54;98.78;98836.63;5059868;28;20128;-93
2021/11/21 06:22:30;;;;;;;35.10;19.55;;;;;;;6.68;98.57;98855.00;5059705;28;20499;-94
2021/11/21 06:24:56;;;;;;;37.10;19.60;;;;;;;6.60;98.77;98840.97;5059204;28;20079;-93
2021/11/21 06:27:22;;;;;;;37.58;21.08;;;;;;;6.65;98.79;98848.84;5058982;28;20052;-92
2021/11/21 06:29:48;;;;;;;38.40;19.80;;;;;;;6.51;98.94;98825.22;5044520;28;20049;-92
2021/11/21 06:32:17;;;;;;;41.08;20.05;;;;;;;6.58;99.10;98838.34;5058362;28;20491;-92
2021/11/21 06:34:44;;;;;;;38.03;20.65;;;;;;;6.56;99.03;98834.84;5059605;28;20029;-94
2021/11/21 06:37:12;;;;;;;40.17;20.98;;;;;;;6.72;98.82;98861.09;5059333;28;20041;-93
2021/11/21 06:39:40;;;;;;;35.53;19.70;;;;;;;6.61;98.66;98829.50;5059164;28;20513;-94
2021/11/21 06:42:07;;;;;;;39.30;21.33;;;;;;;6.55;98.76;98830.47;5060066;28;20167;-95
2021/11/21 06:44:33;;;;;;;42.83;20.73;;;;;;;6.62;98.81;98827.75;5054704;28;20478;-93
2021/11/21 06:46:59;;;;;;;38.50;20.52;;;;;;;6.56;98.55;98832.19;5057549;28;20482;-93
2021/11/21 06:49:25;;;;;;;38.38;20.58;;;;;;;6.61;98.54;98840.06;5058672;28;20571;-93
2021/11/21 06:51:51;;;;;;;41.80;22.23;;;;;;;6.69;98.83;98845.28;5058483;28;20041;-93
2021/11/21 06:54:19;;;;;;;43.72;21.60;;;;;;;6.65;98.68;98825.94;5057544;28;20033;-94
2021/11/21 06:56:46;;;;;;;37.17;21.23;;;;;;;6.82;98.62;98851.31;5057607;28;20037;-92
2021/11/21 06:59:12;;;;;;;42.85;21.90;;;;;;;6.92;98.21;98859.16;5059307;28;20060;-93
2021/11/21 07:01:40;;;;;;;42.33;22.63;;;;;;;6.92;98.39;98860.91;5057773;28;20462;-93
2021/11/21 07:04:06;;;;;;;48.40;25.02;;;;;;;6.91;98.80;98845.94;5058228;28;20048;-92
2021/11/21 07:06:35;;;;;;;50.90;27.48;;;;;;;6.90;98.34;98834.50;5059630;28;20510;-93
2021/11/21 07:09:03;;;;;;;47.83;25.33;;;;;;;6.94;97.78;98843.25;5059852;28;20037;-94
2021/11/21 07:11:31;;;;;;;50.20;24.52;;;;;;;7.03;97.93;98844.94;5059279;28;20563;-93
2021/11/21 07:13:57;;;;;;;45.90;23.80;;;;;;;7.08;97.92;98846.63;5059131;28;20124;-93
2021/11/21 07:16:24;;;;;;;49.92;23.50;;;;;;;6.98;97.26;98834.38;5058165;28;20098;-94
2021/11/21 07:18:56;;;;;;;57.40;23.27;;;;;;;7.19;97.67;98868.50;5059294;28;20857;-93
2021/11/21 07:21:29;;;;;;;45.83;23.05;;;;;;;7.08;97.80;98830.75;5058147;28;20048;-93
2021/11/21 07:24:06;;;;;;;49.60;22.98;;;;;;;7.32;97.00;98860.44;5057276;28;20041;-93
2021/11/21 07:26:34;;;;;;;50.63;23.23;;;;;;;7.23;98.21;98856.13;5059698;28;20037;-93
2021/11/21 07:29:02;;;;;;;64.38;28.52;;;;;;;7.34;98.78;98862.16;5057627;28;20049;-93
2021/11/21 07:31:32;;;;;;;50.60;23.27;;;;;;;7.17;98.94;98849.13;5059022;28;20147;-94
2021/11/21 07:33:57;;;;;;;49.83;22.88;;;;;;;7.08;100.00;98851.91;5059165;28;20041;-93
2021/11/21 07:36:24;;;;;;;59.65;24.20;;;;;;;7.09;100.00;98843.09;5058248;28;20114;-93
2021/11/21 07:38:50;;;;;;;61.92;23.95;;;;;;;7.15;100.00;98861.50;5059129;28;20102;-94
2021/11/21 07:41:16;;;;;;;61.30;23.65;;;;;;;7.12;100.00;98835.09;5060917;28;20037;-94
2021/11/21 07:43:45;;;;;;;65.90;24.35;;;;;;;7.24;100.00;98857.88;5063748;28;20099;-93
2021/11/21 07:46:11;;;;;;;57.03;24.08;;;;;;;7.23;100.00;98849.97;5061616;28;20560;-93
2021/11/21 07:48:39;;;;;;;58.97;23.73;;;;;;;7.23;100.00;98824.41;5060957;28;20045;-92
2021/11/21 07:51:07;;;;;;;49.17;22.88;;;;;;;7.39;99.34;98841.84;5062152;28;20060;-93
2021/11/21 07:53:35;;;;;;;64.68;27.90;;;;;;;7.47;98.05;98847.00;5061146;28;20036;-94
2021/11/21 07:56:02;;;;;;;60.55;25.88;;;;;;;7.63;98.46;98863.53;5059903;28;20159;-94
2021/11/21 07:58:30;;;;;;;62.33;25.10;;;;;;;7.60;97.68;98859.16;5062540;28;20041;-94
2021/11/21 08:00:57;;;;;;;58.35;24.88;;;;;;;7.57;97.62;98832.75;5059132;28;20041;-92
2021/11/21 08:03:23;;;;;;;55.95;24.13;;;;;;;7.67;96.66;98849.38;5062097;28;20052;-93
2021/11/21 08:05:49;;;;;;;53.75;23.42;;;;;;;7.72;97.31;98860.78;5057715;28;20048;-94
2021/11/21 08:08:15;;;;;;;65.07;24.83;;;;;;;7.63;97.21;98837.06;5059617;28;20041;-93
2021/11/21 08:10:41;;;;;;;60.97;26.10;;;;;;;7.61;96.80;98825.63;5061872;28;20457;-93
2021/11/21 08:13:08;;;;;;;64.97;27.13;;;;;;;7.84;95.83;98846.50;5061330;28;20529;-94
2021/11/21 08:15:34;;;;;;;57.25;25.45;;;;;;;7.91;95.42;98850.78;5059206;28;20045;-92
2021/11/21 08:18:04;;;;;;;60.15;23.15;;;;;;;7.79;96.42;98827.16;5061340;28;20041;-93
2021/11/21 08:20:31;;;;;;;60.80;24.27;;;;;;;8.06;96.62;98862.91;5049544;28;20465;-93
2021/11/21 08:22:58;;;;;;;64.32;26.65;;;;;;;7.96;96.26;98840.16;5057699;28;20099;-92
2021/11/21 08:25:24;;;;;;;60.97;23.95;;;;;;;7.98;96.26;98833.94;5058914;28;20041;-93
2021/11/21 08:27:50;;;;;;;57.33;23.13;;;;;;;7.91;95.64;98828.75;5057196;28;20147;-94
2021/11/21 08:30:16;;;;;;;58.50;21.73;;;;;;;8.01;95.86;98839.16;5057149;28;20037;-93
2021/11/21 08:32:42;;;;;;;68.05;24.42;;;;;;;8.05;95.65;98857.69;5057626;28;20045;-94
2021/11/21 08:35:09;;;;;;;60.25;26.23;;;;;;;7.98;96.29;98851.56;5057634;28;20128;-93
2021/11/21 08:37:35;;;;;;;64.32;24.00;;;;;;;7.93;98.05;98848.13;5057620;28;20033;-93
2021/11/21 08:40:02;;;;;;;64.30;25.25;;;;;;;7.99;97.41;98863.94;5055052;28;20103;-93
2021/11/21 08:42:28;;;;;;;69.10;26.70;;;;;;;7.95;97.21;98863.09;5055672;28;20746;-92
2021/11/21 08:44:54;;;;;;;69.85;25.83;;;;;;;7.70;96.32;98836.13;5055762;28;20387;-92
2021/11/21 08:47:20;;;;;;;66.55;24.52;;;;;;;7.83;98.37;98860.63;5056173;28;20044;-93
2021/11/21 08:49:46;;;;;;;69.32;25.45;;;;;;;7.85;98.14;98852.66;5056970;28;20495;-92
2021/11/21 08:52:13;;;;;;;58.75;25.10;;;;;;;7.82;98.48;98837.69;5054469;28;20083;-92
2021/11/21 08:54:39;;;;;;;60.35;23.38;;;;;;;7.92;97.13;98846.41;5054637;28;20041;-93
2021/11/21 08:57:05;;;;;;;68.97;25.88;;;;;;;7.91;97.83;98849.91;5054847;28;20509;-94
2021/11/21 08:59:34;;;;;;;60.78;22.75;;;;;;;8.10;96.90;98853.16;5055276;28;20045;-92
2021/11/21 09:02:00;;;;;;;66.85;24.23;;;;;;;8.43;95.71;98863.22;5053660;28;20047;-93
2021/11/21 09:04:26;;;;;;;59.53;24.25;;;;;;;8.57;95.19;98846.25;5054405;28;20064;-93
2021/11/21 09:06:52;;;;;;;59.58;24.20;;;;;;;8.63;92.82;98843.44;5054254;28;20463;-92
2021/11/21 09:09:20;;;;;;;65.18;22.80;;;;;;;8.37;94.24;98831.53;5054630;28;20045;-92
2021/11/21 09:11:47;;;;;;;70.25;27.08;;;;;;;8.54;94.62;98833.88;5054260;28;20051;-93
2021/11/21 09:14:14;;;;;;;81.25;35.53;;;;;;;8.64;93.05;98845.22;5055018;28;20368;-92
2021/11/21 09:16:40;;;;;;;74.63;30.88;;;;;;;8.92;93.39;98844.72;5053760;28;20074;-93
2021/11/21 09:19:06;;;;;;;84.78;37.30;;;;;;;9.02;91.95;98827.69;5055566;28;20044;-93
2021/11/21 09:21:32;;;;;;;71.35;28.05;;;;;;;9.23;91.15;98829.91;5056061;28;20044;-93
2021/11/21 09:23:58;;;;;;;69.95;30.50;;;;;;;9.44;90.11;98833.03;5056300;28;20065;-93
2021/11/21 09:26:29;;;;;;;80.30;28.73;;;;;;;9.61;87.00;98841.50;5054593;28;20072;-93
2021/11/21 09:28:55;;;;;;;73.15;30.88;;;;;;;9.59;87.27;98821.22;5054216;28;20045;-93
2021/11/21 09:31:21;;;;;;;81.55;36.03;;;;;;;9.56;87.18;98830.09;5053982;28;20045;-93
2021/11/21 09:33:47;;;;;;;92.43;43.47;;;;;;;9.77;87.06;98830.53;5054223;28;20154;-92
2021/11/21 09:36:13;;;;;;;86.90;35.40;;;;;;;9.85;86.58;98828.59;5054335;28;20475;-93
2021/11/21 09:38:39;;;;;;;81.03;36.20;;;;;;;10.03;84.84;98841.41;5055024;28;20048;-93
2021/11/21 09:41:05;;;;;;;69.68;32.50;;;;;;;9.97;83.71;98833.59;5056167;28;20086;-94
2021/11/21 09:43:32;;;;;;;66.30;30.27;;;;;;;9.52;84.88;98815.16;5055704;28;20040;-93
2021/11/21 09:45:59;;;;;;;67.47;30.92;;;;;;;9.50;86.68;98838.22;5053481;28;20037;-93
2021/11/21 09:48:29;;;;;;;68.30;29.02;;;;;;;9.37;88.53;98815.50;5054609;28;20049;-94
2021/11/21 09:50:56;;;;;;;73.15;29.60;;;;;;;9.57;87.58;98839.81;5054212;28;20380;-93
2021/11/21 09:53:23;;;;;;;70.15;35.13;;;;;;;9.44;87.59;98807.38;5054272;28;20083;-94
2021/11/21 09:55:49;;;;;;;146.95;82.13;;;;;;;9.64;87.45;98808.69;5054394;28;20144;-92
2021/11/21 09:58:15;;;;;;;83.28;37.22;;;;;;;9.87;86.91;98819.66;5054035;28;20052;-93
2021/11/21 10:00:42;;;;;;;68.78;28.42;;;;;;;9.91;85.78;98811.63;5054057;28;20056;-93
2021/11/21 10:03:10;;;;;;;65.65;30.10;;;;;;;9.95;86.32;98803.53;5053685;28;20385;-94
2021/11/21 10:05:39;;;;;;;62.65;28.48;;;;;;;10.04;86.07;98797.13;5053603;28;20129;-95
2021/11/21 10:08:07;;;;;;;76.45;30.45;;;;;;;10.11;85.78;98797.88;5054010;28;20049;-93
2021/11/21 10:10:36;;;;;;;61.08;25.23;;;;;;;10.13;84.13;98801.34;5053814;28;20045;-93
2021/11/21 10:13:02;;;;;;;67.83;27.03;;;;;;;10.14;84.55;98797.78;5054498;28;20111;-92
2021/11/21 10:15:28;;;;;;;67.20;27.25;;;;;;;10.03;85.96;98792.72;5054067;28;20079;-93
2021/11/21 10:17:56;;;;;;;72.47;32.30;;;;;;;10.10;86.41;98794.31;5054085;28;20439;-94
2021/11/21 10:20:24;;;;;;;59.35;22.13;;;;;;;10.02;85.79;98789.22;5054023;28;20478;-94
2021/11/21 10:22:58;;;;;;;60.45;24.63;;;;;;;9.49;89.60;98782.50;5053804;28;20041;-92
2021/11/21 10:25:45;;;;;;;64.03;26.65;;;;;;;9.34;88.79;98775.75;5053792;28;20475;-92
2021/11/21 10:28:15;;;;;;;68.93;30.90;;;;;;;9.24;92.09;98775.97;5053618;28;20406;-92
2021/11/21 10:31:09;;;;;;;66.22;28.67;;;;;;;9.45;91.00;98769.31;5054462;28;20051;-93
2021/11/21 10:33:41;;;;;;;64.13;25.30;;;;;;;9.90;89.07;98773.56;5057409;28;20494;-93
2021/11/21 10:36:10;;;;;;;56.15;25.42;;;;;;;9.97;86.60;98743.28;5057326;28;20136;-94
2021/11/21 10:38:39;;;;;;;65.00;27.70;;;;;;;10.12;86.19;98735.84;5058403;28;20041;-94
2021/11/21 10:41:08;;;;;;;64.97;27.92;;;;;;;10.25;85.11;98734.59;5058224;28;20112;-95
2021/11/21 10:43:41;;;;;;;;;;;;;;;10.54;84.10;98756.91;5058678;28;20150;-92
2021/11/21 10:46:22;;;;;;;52.20;24.23;;;;;;;10.54;83.89;98731.22;5057651;28;19920;-94
2021/11/21 10:48:49;;;;;;;54.90;24.92;;;;;;;10.60;82.30;98717.72;5057331;28;20071;-94
2021/11/21 10:51:18;;;;;;;61.92;26.90;;;;;;;10.80;82.19;98741.13;5057008;28;20115;-93
2021/11/21 10:53:46;;;;;;;64.40;27.33;;;;;;;10.87;82.30;98732.03;5057670;28;20040;-93
2021/11/21 10:56:15;;;;;;;61.40;27.27;;;;;;;10.88;82.18;98712.47;5058295;28;20037;-95
2021/11/21 10:58:42;;;;;;;;;;;;;;;11.15;81.81;98736.56;5059149;28;20037;-94
2021/11/21 11:01:19;;;;;;;54.38;23.45;;;;;;;10.80;83.66;98706.53;5058243;28;20359;-94
2021/11/21 11:04:08;;;;;;;53.97;23.13;;;;;;;11.10;82.74;98719.81;5059087;28;20041;-94
2021/11/21 11:06:34;;;;;;;306.95;130.18;;;;;;;11.19;80.94;98716.00;5060092;28;20053;-94
2021/11/21 11:09:14;;;;;;;100.45;41.63;;;;;;;11.26;80.00;98696.28;5058031;28;20047;-94
2021/11/21 11:11:40;;;;;;;52.03;25.40;;;;;;;11.34;78.46;98685.38;5058022;28;20052;-95
2021/11/21 11:14:06;;;;;;;35.47;17.02;;;;;;;10.56;82.46;98704.56;5058093;28;20068;-94
2021/11/21 11:16:32;;;;;;;46.00;22.58;;;;;;;10.33;84.62;98674.19;5058887;28;20045;-93
2021/11/21 11:19:01;;;;;;;37.08;17.45;;;;;;;10.58;82.49;98697.41;5058857;28;20545;-93
2021/11/21 11:21:29;;;;;;;36.17;18.55;;;;;;;10.61;81.11;98678.72;5058268;28;20092;-94
2021/11/21 11:23:55;;;;;;;41.97;21.85;;;;;;;9.83;86.16;98679.88;5057451;28;20094;-93